createdAt,value
2022-09-30T00:00:32.295Z,0
2022-09-30T00:01:35.391Z,0
2022-09-30T00:02:38.883Z,0
2022-09-30T00:03:42.140Z,0
2022-09-30T00:04:45.642Z,0
2022-09-30T00:05:49.136Z,0
2022-09-30T00:06:52.210Z,0
2022-09-30T00:07:55.314Z,0
2022-09-30T00:08:58.787Z,0
2022-09-30T00:10:02.467Z,0
2022-09-30T00:11:05.860Z,0
2022-09-30T00:12:09.041Z,0
2022-09-30T00:13:11.353Z,0
2022-09-30T00:14:14.349Z,0
2022-09-30T00:15:17.541Z,0
2022-09-30T00:16:21.051Z,0
2022-09-30T00:17:24.289Z,0
2022-09-30T00:18:27.441Z,0
2022-09-30T00:19:30.342Z,0
2022-09-30T00:20:33.519Z,0
2022-09-30T00:21:36.667Z,0
2022-09-30T00:22:40.106Z,0
2022-09-30T00:23:43.263Z,0
2022-09-30T00:24:45.787Z,0
2022-09-30T00:25:49.331Z,0
2022-09-30T00:26:53.116Z,0
2022-09-30T00:27:56.562Z,0
2022-09-30T00:28:59.624Z,0
2022-09-30T00:30:02.518Z,0
2022-09-30T00:31:05.310Z,0
2022-09-30T00:32:08.787Z,0
2022-09-30T00:33:11.912Z,0
2022-09-30T00:34:14.627Z,0
2022-09-30T00:35:21.801Z,0
2022-09-30T00:36:25.698Z,0
2022-09-30T00:37:28.583Z,0
2022-09-30T00:38:31.464Z,0
2022-09-30T00:39:34.181Z,0
2022-09-30T00:40:36.982Z,0
2022-09-30T00:41:40.555Z,0
2022-09-30T00:42:44.622Z,0
2022-09-30T00:43:47.497Z,0
2022-09-30T00:44:51.243Z,0
2022-09-30T00:45:54.197Z,0
2022-09-30T00:46:57.571Z,0
2022-09-30T00:48:00.853Z,0
2022-09-30T00:49:03.947Z,0
2022-09-30T00:50:07.377Z,0
2022-09-30T00:51:10.448Z,0
2022-09-30T00:52:13.435Z,0
2022-09-30T00:53:16.434Z,0
2022-09-30T00:54:19.502Z,0
2022-09-30T00:55:22.569Z,0
2022-09-30T00:56:25.009Z,0
2022-09-30T00:57:27.848Z,0
2022-09-30T00:58:31.896Z,0
2022-09-30T00:59:34.890Z,0
2022-09-30T01:00:38.677Z,0
2022-09-30T01:01:41.881Z,0
2022-09-30T01:02:45.685Z,0
2022-09-30T01:03:48.484Z,0
2022-09-30T01:04:51.567Z,0
2022-09-30T01:05:54.786Z,0
2022-09-30T01:06:57.685Z,0
2022-09-30T01:08:01.099Z,0
2022-09-30T01:09:04.424Z,0
2022-09-30T01:10:07.370Z,0
2022-09-30T01:11:10.083Z,0
2022-09-30T01:12:13.353Z,0
2022-09-30T01:13:16.265Z,0
2022-09-30T01:14:20.040Z,0
2022-09-30T01:15:23.001Z,0
2022-09-30T01:16:26.118Z,0
2022-09-30T01:17:30.022Z,0
2022-09-30T01:18:33.444Z,0
2022-09-30T01:19:36.716Z,0
2022-09-30T01:20:39.912Z,0
2022-09-30T01:21:42.633Z,0
2022-09-30T01:22:44.903Z,0
2022-09-30T01:23:47.490Z,0
2022-09-30T01:24:51.224Z,0
2022-09-30T01:25:54.131Z,0
2022-09-30T01:26:57.241Z,0
2022-09-30T01:28:00.026Z,0
2022-09-30T01:29:03.913Z,0
2022-09-30T01:30:07.963Z,0
2022-09-30T01:31:11.420Z,0
2022-09-30T01:32:14.461Z,0
2022-09-30T01:33:17.815Z,0
2022-09-30T01:34:20.786Z,0
2022-09-30T01:35:23.864Z,0
2022-09-30T01:36:27.252Z,0
2022-09-30T01:37:29.943Z,0
2022-09-30T01:38:32.932Z,0
2022-09-30T01:39:34.976Z,0
2022-09-30T01:40:38.319Z,0
2022-09-30T01:41:41.196Z,0
2022-09-30T01:42:44.076Z,0
2022-09-30T01:43:46.583Z,0
2022-09-30T01:44:50.065Z,0
2022-09-30T01:45:53.550Z,0
2022-09-30T01:46:56.142Z,0
2022-09-30T01:47:59.098Z,0
2022-09-30T01:49:02.271Z,0
2022-09-30T01:50:05.083Z,0
2022-09-30T01:51:08.439Z,0
2022-09-30T01:52:11.803Z,0
2022-09-30T01:53:14.960Z,0
2022-09-30T01:54:18.691Z,0
2022-09-30T01:55:22.126Z,0
2022-09-30T01:56:24.946Z,0
2022-09-30T01:57:28.396Z,0
2022-09-30T01:58:31.469Z,0
2022-09-30T01:59:33.623Z,0
2022-09-30T02:00:37.455Z,0
2022-09-30T02:01:41.649Z,0
2022-09-30T02:02:45.101Z,0
2022-09-30T02:03:48.237Z,0
2022-09-30T02:04:51.386Z,0
2022-09-30T02:05:55.121Z,0
2022-09-30T02:06:57.796Z,0
2022-09-30T02:08:00.327Z,0
2022-09-30T02:09:04.404Z,0
2022-09-30T02:10:07.501Z,0
2022-09-30T02:11:10.377Z,0
2022-09-30T02:12:13.610Z,0
2022-09-30T02:13:16.956Z,0
2022-09-30T02:14:20.228Z,0
2022-09-30T02:15:23.015Z,0
2022-09-30T02:16:25.754Z,0
2022-09-30T02:17:30.102Z,0
2022-09-30T02:18:32.532Z,0
2022-09-30T02:19:35.419Z,0
2022-09-30T02:20:38.859Z,0
2022-09-30T02:21:42.315Z,0
2022-09-30T02:22:45.105Z,0
2022-09-30T02:23:47.932Z,0
2022-09-30T02:24:51.257Z,0
2022-09-30T02:25:54.145Z,0
2022-09-30T02:26:56.419Z,0
2022-09-30T02:27:58.943Z,0
2022-09-30T02:29:02.024Z,0
2022-09-30T02:30:05.101Z,0
2022-09-30T02:31:08.070Z,0
2022-09-30T02:32:11.675Z,0
2022-09-30T02:33:15.597Z,0
2022-09-30T02:34:18.588Z,0
2022-09-30T02:35:21.948Z,0
2022-09-30T02:36:25.092Z,0
2022-09-30T02:37:28.362Z,0
2022-09-30T02:38:31.542Z,0
2022-09-30T02:39:34.272Z,0
2022-09-30T02:40:37.442Z,0
2022-09-30T02:41:39.948Z,0
2022-09-30T02:42:43.120Z,0
2022-09-30T02:43:46.346Z,0
2022-09-30T02:44:49.485Z,0
2022-09-30T02:45:52.002Z,0
2022-09-30T02:46:54.504Z,0
2022-09-30T02:47:58.140Z,0
2022-09-30T02:49:01.906Z,0
2022-09-30T02:50:05.058Z,0
2022-09-30T02:51:08.240Z,0
2022-09-30T02:52:11.422Z,0
2022-09-30T02:53:14.212Z,0
2022-09-30T02:54:17.635Z,0
2022-09-30T02:55:21.022Z,0
2022-09-30T02:56:23.929Z,0
2022-09-30T02:57:27.008Z,0
2022-09-30T02:58:30.098Z,0
2022-09-30T02:59:33.166Z,0
2022-09-30T03:00:36.928Z,0
2022-09-30T03:01:40.353Z,0
2022-09-30T03:02:43.527Z,0
2022-09-30T03:03:47.323Z,0
2022-09-30T03:04:50.947Z,0
2022-09-30T03:05:53.906Z,0
2022-09-30T03:06:56.919Z,0
2022-09-30T03:07:59.629Z,0
2022-09-30T03:09:03.312Z,0
2022-09-30T03:10:06.300Z,0
2022-09-30T03:11:09.032Z,0
2022-09-30T03:12:12.687Z,0
2022-09-30T03:13:15.561Z,0
2022-09-30T03:14:18.905Z,0
2022-09-30T03:15:21.434Z,0
2022-09-30T03:16:24.622Z,0
2022-09-30T03:17:27.959Z,0
2022-09-30T03:18:31.407Z,0
2022-09-30T03:19:34.267Z,0
2022-09-30T03:20:38.044Z,0
2022-09-30T03:21:40.762Z,0
2022-09-30T03:22:44.136Z,0
2022-09-30T03:23:47.478Z,0
2022-09-30T03:24:50.006Z,0
2022-09-30T03:25:53.160Z,0
2022-09-30T03:26:56.527Z,0
2022-09-30T03:27:59.638Z,0
2022-09-30T03:29:02.319Z,0
2022-09-30T03:30:05.120Z,0
2022-09-30T03:31:08.606Z,0
2022-09-30T03:32:12.488Z,0
2022-09-30T03:33:15.481Z,0
2022-09-30T03:34:18.442Z,0
2022-09-30T03:35:20.948Z,0
2022-09-30T03:36:24.459Z,0
2022-09-30T03:37:27.064Z,0
2022-09-30T03:38:29.629Z,0
2022-09-30T03:39:32.378Z,0
2022-09-30T03:40:35.737Z,0
2022-09-30T03:41:39.111Z,0
2022-09-30T03:42:42.009Z,0
2022-09-30T03:43:44.445Z,0
2022-09-30T03:44:47.431Z,0
2022-09-30T03:45:50.532Z,0
2022-09-30T03:46:54.315Z,0
2022-09-30T03:47:57.189Z,0
2022-09-30T03:48:59.906Z,0
2022-09-30T03:50:02.341Z,0
2022-09-30T03:51:05.452Z,0
2022-09-30T03:52:09.456Z,0
2022-09-30T03:53:12.656Z,0
2022-09-30T03:54:15.688Z,0
2022-09-30T03:55:18.489Z,0
2022-09-30T03:56:21.475Z,0
2022-09-30T03:57:24.638Z,0
2022-09-30T03:58:27.452Z,0
2022-09-30T03:59:30.335Z,0
2022-09-30T04:00:33.273Z,0
2022-09-30T04:01:36.134Z,0
2022-09-30T04:02:39.186Z,0
2022-09-30T04:03:42.344Z,0
2022-09-30T04:04:46.061Z,0
2022-09-30T04:05:49.205Z,0
2022-09-30T04:06:53.011Z,0
2022-09-30T04:07:57.151Z,0
2022-09-30T04:09:00.332Z,0
2022-09-30T04:10:04.047Z,0
2022-09-30T04:11:07.747Z,0
2022-09-30T04:12:10.624Z,0
2022-09-30T04:13:13.489Z,0
2022-09-30T04:14:16.855Z,0
2022-09-30T04:15:19.921Z,0
2022-09-30T04:16:22.218Z,0
2022-09-30T04:17:26.041Z,0
2022-09-30T04:18:28.913Z,0
2022-09-30T04:19:32.066Z,0
2022-09-30T04:20:34.775Z,0
2022-09-30T04:21:38.078Z,0
2022-09-30T04:22:41.389Z,0
2022-09-30T04:23:44.721Z,0
2022-09-30T04:24:47.501Z,0
2022-09-30T04:25:50.172Z,0
2022-09-30T04:26:53.545Z,0
2022-09-30T04:27:56.989Z,0
2022-09-30T04:28:59.786Z,0
2022-09-30T04:30:02.807Z,0
2022-09-30T04:31:05.844Z,0
2022-09-30T04:32:09.256Z,0
2022-09-30T04:33:11.966Z,0
2022-09-30T04:34:14.786Z,0
2022-09-30T04:35:17.665Z,0
2022-09-30T04:36:20.275Z,0
2022-09-30T04:37:23.415Z,0
2022-09-30T04:38:26.610Z,0
2022-09-30T04:39:30.411Z,0
2022-09-30T04:40:33.200Z,0
2022-09-30T04:41:36.355Z,0
2022-09-30T04:42:39.534Z,0
2022-09-30T04:43:42.893Z,4
2022-09-30T04:44:45.404Z,4
2022-09-30T04:45:47.999Z,0
2022-09-30T04:46:51.243Z,4
2022-09-30T04:47:54.467Z,4
2022-09-30T04:48:57.548Z,4
2022-09-30T04:50:00.353Z,8
2022-09-30T04:51:02.615Z,8
2022-09-30T04:52:05.993Z,8
2022-09-30T04:53:08.505Z,12
2022-09-30T04:54:12.300Z,12
2022-09-30T04:55:15.823Z,16
2022-09-30T04:56:18.899Z,20
2022-09-30T04:57:21.792Z,24
2022-09-30T04:58:24.521Z,28
2022-09-30T04:59:27.643Z,36
2022-09-30T05:00:30.500Z,40
2022-09-30T05:01:34.272Z,48
2022-09-30T05:02:37.792Z,56
2022-09-30T05:03:40.387Z,60
2022-09-30T05:04:43.351Z,72
2022-09-30T05:05:46.498Z,80
2022-09-30T05:06:49.376Z,96
2022-09-30T05:07:52.239Z,104
2022-09-30T05:08:55.967Z,120
2022-09-30T05:09:59.695Z,132
2022-09-30T05:11:03.490Z,152
2022-09-30T05:12:05.815Z,172
2022-09-30T05:13:08.610Z,192
2022-09-30T05:14:11.681Z,220
2022-09-30T05:15:14.466Z,244
2022-09-30T05:16:17.224Z,276
2022-09-30T05:17:20.999Z,316
2022-09-30T05:18:23.512Z,356
2022-09-30T05:19:26.415Z,400
2022-09-30T05:20:29.562Z,452
2022-09-30T05:21:32.073Z,508
2022-09-30T05:22:34.884Z,564
2022-09-30T05:23:38.634Z,624
2022-09-30T05:24:41.723Z,696
2022-09-30T05:25:45.528Z,772
2022-09-30T05:26:49.676Z,856
2022-09-30T05:27:53.396Z,948
2022-09-30T05:28:55.997Z,1036
2022-09-30T05:29:58.790Z,1128
2022-09-30T05:31:01.324Z,1196
2022-09-30T05:32:05.052Z,1236
2022-09-30T05:33:08.217Z,1284
2022-09-30T05:34:11.570Z,1320
2022-09-30T05:35:14.533Z,1348
2022-09-30T05:36:17.895Z,1368
2022-09-30T05:37:21.313Z,1392
2022-09-30T05:38:24.101Z,1444
2022-09-30T05:39:27.090Z,1520
2022-09-30T05:40:30.525Z,1680
2022-09-30T05:41:34.297Z,1844
2022-09-30T05:42:38.274Z,2024
2022-09-30T05:43:42.281Z,2156
2022-09-30T05:44:45.381Z,2328
2022-09-30T05:45:47.696Z,2512
2022-09-30T05:46:50.631Z,2468
2022-09-30T05:47:53.511Z,2500
2022-09-30T05:48:56.873Z,2528
2022-09-30T05:49:59.028Z,2608
2022-09-30T05:51:02.271Z,2668
2022-09-30T05:52:05.081Z,2792
2022-09-30T05:53:08.861Z,2872
2022-09-30T05:54:12.563Z,3004
2022-09-30T05:55:15.991Z,3076
2022-09-30T05:56:19.011Z,3080
2022-09-30T05:57:22.234Z,3060
2022-09-30T05:58:26.006Z,3052
2022-09-30T05:59:28.731Z,3040
2022-09-30T06:00:31.451Z,3016
2022-09-30T06:01:34.934Z,3020
2022-09-30T06:02:38.754Z,3016
2022-09-30T06:03:42.204Z,3040
2022-09-30T06:04:45.042Z,3068
2022-09-30T06:05:47.918Z,3188
2022-09-30T06:06:50.986Z,3296
2022-09-30T06:07:54.411Z,3448
2022-09-30T06:08:57.262Z,3816
2022-09-30T06:10:01.313Z,3956
2022-09-30T06:11:03.931Z,4064
2022-09-30T06:12:07.406Z,4232
2022-09-30T06:13:10.739Z,4276
2022-09-30T06:14:14.591Z,4092
2022-09-30T06:15:16.824Z,4036
2022-09-30T06:16:20.053Z,3948
2022-09-30T06:17:23.208Z,4148
2022-09-30T06:18:26.463Z,4288
2022-09-30T06:19:29.451Z,4108
2022-09-30T06:20:33.081Z,4152
2022-09-30T06:21:35.508Z,4072
2022-09-30T06:22:38.471Z,4024
2022-09-30T06:23:41.254Z,4072
2022-09-30T06:24:44.730Z,4264
2022-09-30T06:25:47.793Z,4492
2022-09-30T06:26:50.228Z,4116
2022-09-30T06:27:53.646Z,4040
2022-09-30T06:28:56.508Z,4084
2022-09-30T06:30:00.656Z,4240
2022-09-30T06:31:03.722Z,4400
2022-09-30T06:32:07.016Z,4480
2022-09-30T06:33:10.035Z,4476
2022-09-30T06:34:13.309Z,4432
2022-09-30T06:35:16.807Z,4492
2022-09-30T06:36:20.639Z,4584
2022-09-30T06:37:23.406Z,4660
2022-09-30T06:38:26.203Z,4756
2022-09-30T06:39:29.299Z,4816
2022-09-30T06:40:33.062Z,4856
2022-09-30T06:41:36.786Z,5044
2022-09-30T06:42:39.670Z,5108
2022-09-30T06:43:52.176Z,5084
2022-09-30T06:45:26.340Z,5308
2022-09-30T06:46:41.368Z,5308
2022-09-30T06:48:00.318Z,5356
2022-09-30T06:49:12.456Z,5420
2022-09-30T06:50:26.121Z,5544
2022-09-30T06:51:30.197Z,5548
2022-09-30T06:52:33.254Z,5420
2022-09-30T06:53:36.247Z,5452
2022-09-30T06:54:38.764Z,5744
2022-09-30T06:55:41.620Z,5828
2022-09-30T06:56:44.404Z,5816
2022-09-30T06:57:47.484Z,5820
2022-09-30T06:58:50.635Z,5680
2022-09-30T06:59:53.422Z,5340
2022-09-30T07:00:57.970Z,5048
2022-09-30T07:02:01.914Z,4708
2022-09-30T07:03:05.590Z,4524
2022-09-30T07:04:08.583Z,4456
2022-09-30T07:05:12.087Z,4336
2022-09-30T07:06:14.662Z,4276
2022-09-30T07:07:16.847Z,4240
2022-09-30T07:08:19.895Z,4212
2022-09-30T07:09:23.317Z,4224
2022-09-30T07:10:28.055Z,4204
2022-09-30T07:11:30.502Z,4144
2022-09-30T07:12:33.297Z,4124
2022-09-30T07:13:36.368Z,4156
2022-09-30T07:14:39.640Z,4352
2022-09-30T07:15:42.645Z,4572
2022-09-30T07:16:47.045Z,4876
2022-09-30T07:17:51.154Z,5144
2022-09-30T07:18:54.596Z,5428
2022-09-30T07:19:57.943Z,5736
2022-09-30T07:21:00.180Z,5952
2022-09-30T07:22:02.983Z,6140
2022-09-30T07:23:06.002Z,6456
2022-09-30T07:24:08.739Z,6540
2022-09-30T07:25:12.475Z,6804
2022-09-30T07:26:15.620Z,7004
2022-09-30T07:27:18.770Z,7212
2022-09-30T07:28:22.267Z,7512
2022-09-30T07:29:25.179Z,7468
2022-09-30T07:30:28.408Z,7512
2022-09-30T07:31:33.357Z,7696
2022-09-30T07:32:40.378Z,7912
2022-09-30T07:33:43.505Z,8160
2022-09-30T07:34:46.851Z,8368
2022-09-30T07:35:50.304Z,8596
2022-09-30T07:36:53.373Z,8848
2022-09-30T07:37:56.449Z,9036
2022-09-30T07:38:59.961Z,8792
2022-09-30T07:40:02.760Z,8316
2022-09-30T07:41:05.704Z,7876
2022-09-30T07:42:09.354Z,7712
2022-09-30T07:43:11.874Z,7648
2022-09-30T07:44:15.029Z,7860
2022-09-30T07:45:18.115Z,8436
2022-09-30T07:46:21.197Z,9104
2022-09-30T07:47:24.468Z,9980
2022-09-30T07:48:28.657Z,10884
2022-09-30T07:49:31.083Z,11372
2022-09-30T07:50:34.088Z,11580
2022-09-30T07:51:37.002Z,11572
2022-09-30T07:52:39.804Z,11752
2022-09-30T07:53:43.159Z,12216
2022-09-30T07:54:50.347Z,12576
2022-09-30T07:55:54.260Z,12956
2022-09-30T07:57:09.598Z,13088
2022-09-30T07:58:15.423Z,13160
2022-09-30T07:59:18.531Z,13104
2022-09-30T08:01:55.707Z,12732
2022-09-30T08:02:59.070Z,12528
2022-09-30T08:04:02.653Z,12444
2022-09-30T08:05:06.078Z,12624
2022-09-30T08:06:08.786Z,12532
2022-09-30T08:07:11.960Z,12472
2022-09-30T08:08:14.839Z,12276
2022-09-30T08:09:17.981Z,12420
2022-09-30T08:10:21.291Z,12916
2022-09-30T08:11:24.233Z,13168
2022-09-30T08:12:27.664Z,13616
2022-09-30T08:13:30.634Z,14256
2022-09-30T08:14:33.974Z,14616
2022-09-30T08:15:37.799Z,14964
2022-09-30T08:16:41.301Z,15428
2022-09-30T08:17:44.359Z,15960
2022-09-30T08:18:47.493Z,19200
2022-09-30T08:19:51.344Z,17120
2022-09-30T08:20:54.863Z,16568
2022-09-30T08:21:58.118Z,17576
2022-09-30T08:23:02.110Z,18880
2022-09-30T08:24:05.430Z,19776
2022-09-30T08:25:08.518Z,21376
2022-09-30T08:26:11.707Z,22304
2022-09-30T08:27:14.565Z,23264
2022-09-30T08:28:17.973Z,26240
2022-09-30T08:29:36.065Z,25920
2022-09-30T08:31:07.076Z,25056
2022-09-30T08:32:10.774Z,31488
2022-09-30T08:33:14.183Z,33152
2022-09-30T08:34:17.650Z,27040
2022-09-30T08:35:22.168Z,23008
2022-09-30T08:36:26.164Z,22080
2022-09-30T08:37:29.429Z,22528
2022-09-30T08:38:32.136Z,21120
2022-09-30T08:39:34.755Z,34880
2022-09-30T08:40:37.338Z,63264
2022-09-30T08:41:40.516Z,94848
2022-09-30T08:42:49.057Z,94272
2022-09-30T08:44:00.981Z,93152
2022-09-30T08:45:03.973Z,92864
2022-09-30T08:46:06.943Z,93024
2022-09-30T08:47:10.699Z,92672
2022-09-30T08:48:13.859Z,93184
2022-09-30T08:49:18.166Z,93536
2022-09-30T08:50:21.487Z,93600
2022-09-30T08:51:25.161Z,93664
2022-09-30T08:52:30.807Z,94080
2022-09-30T08:53:52.530Z,94624
2022-09-30T08:54:55.340Z,94848
2022-09-30T08:55:58.369Z,95648
2022-09-30T08:57:01.748Z,94624
2022-09-30T08:58:04.811Z,93088
2022-09-30T08:59:08.072Z,91680
2022-09-30T09:00:11.266Z,91264
2022-09-30T09:01:13.457Z,90432
2022-09-30T09:02:17.461Z,89760
2022-09-30T09:03:21.207Z,90624
2022-09-30T09:04:24.500Z,91136
2022-09-30T09:05:27.614Z,90240
2022-09-30T09:06:31.749Z,90784
2022-09-30T09:07:34.251Z,91360
2022-09-30T09:08:37.608Z,93152
2022-09-30T09:09:40.702Z,94208
2022-09-30T09:10:43.767Z,97280
2022-09-30T09:11:46.923Z,98688
2022-09-30T09:12:49.264Z,99360
2022-09-30T09:13:52.334Z,99776
2022-09-30T09:14:55.411Z,97280
2022-09-30T09:15:58.224Z,97408
2022-09-30T09:17:01.342Z,96736
2022-09-30T09:18:22.431Z,98016
2022-09-30T09:19:28.013Z,94336
2022-09-30T09:20:30.173Z,95936
2022-09-30T09:21:33.883Z,95488
2022-09-30T09:22:37.319Z,95136
2022-09-30T09:23:40.040Z,98496
2022-09-30T09:24:43.751Z,99040
2022-09-30T09:25:47.406Z,99584
2022-09-30T09:26:51.202Z,101440
2022-09-30T09:27:54.719Z,100800
2022-09-30T09:28:58.548Z,101696
2022-09-30T09:30:01.428Z,100128
2022-09-30T09:31:04.530Z,100096
2022-09-30T09:32:07.896Z,100224
2022-09-30T09:33:11.848Z,98720
2022-09-30T09:34:14.641Z,97792
2022-09-30T09:35:18.098Z,96000
2022-09-30T09:36:20.615Z,97216
2022-09-30T09:37:24.124Z,98880
2022-09-30T09:38:27.853Z,97824
2022-09-30T09:39:31.599Z,97600
2022-09-30T09:40:34.271Z,98720
2022-09-30T09:41:37.364Z,101024
2022-09-30T09:43:43.875Z,101376
2022-09-30T09:44:46.609Z,99392
2022-09-30T09:45:50.038Z,99968
2022-09-30T09:46:53.922Z,101728
2022-09-30T09:47:56.804Z,102976
2022-09-30T09:49:00.615Z,99968
2022-09-30T09:50:03.763Z,100384
2022-09-30T09:51:06.495Z,100384
2022-09-30T09:52:10.511Z,101376
2022-09-30T09:53:13.736Z,101600
2022-09-30T09:54:17.499Z,102976
2022-09-30T09:55:20.387Z,105088
2022-09-30T09:56:23.182Z,110496
2022-09-30T09:57:34.794Z,112704
2022-09-30T09:58:37.965Z,112800
2022-09-30T09:59:41.236Z,114112
2022-09-30T10:00:44.439Z,114688
2022-09-30T10:01:48.456Z,119168
2022-09-30T10:02:51.556Z,120192
2022-09-30T10:03:54.650Z,120896
2022-09-30T10:04:58.384Z,120928
2022-09-30T10:06:01.375Z,119616
2022-09-30T10:07:04.852Z,119552
2022-09-30T10:08:08.319Z,118304
2022-09-30T10:09:12.157Z,118016
2022-09-30T10:10:18.506Z,117504
2022-09-30T10:11:26.664Z,117888
2022-09-30T10:12:29.381Z,116960
2022-09-30T10:13:31.990Z,116384
2022-09-30T10:14:35.453Z,116640
2022-09-30T10:15:38.656Z,118336
2022-09-30T10:16:42.375Z,118144
2022-09-30T10:17:45.825Z,119072
2022-09-30T10:18:48.128Z,119104
2022-09-30T10:19:51.482Z,119552
2022-09-30T10:20:54.360Z,121952
2022-09-30T10:21:57.528Z,122144
2022-09-30T10:23:00.941Z,123456
2022-09-30T10:24:04.101Z,130208
2022-09-30T10:25:07.275Z,127616
2022-09-30T10:26:11.061Z,120672
2022-09-30T10:27:14.757Z,126560
2022-09-30T10:28:17.946Z,126016
2022-09-30T10:29:21.567Z,126240
2022-09-30T10:30:24.930Z,125984
2022-09-30T10:31:28.825Z,127552
2022-09-30T10:32:32.983Z,130816
2022-09-30T10:33:36.207Z,131424
2022-09-30T10:34:38.941Z,16064
2022-09-30T10:35:42.017Z,16588
2022-09-30T10:36:45.199Z,52832
2022-09-30T10:37:51.452Z,130944
2022-09-30T10:38:54.907Z,18932
2022-09-30T10:40:03.799Z,18672
2022-09-30T10:41:07.734Z,14956
2022-09-30T10:42:11.156Z,29088
2022-09-30T10:43:14.098Z,15540
2022-09-30T10:44:17.573Z,17304
2022-09-30T10:45:20.098Z,27552
2022-09-30T10:46:27.328Z,142464
2022-09-30T10:47:36.534Z,146016
2022-09-30T10:48:39.894Z,145056
2022-09-30T10:49:42.679Z,145088
2022-09-30T10:50:45.565Z,143264
2022-09-30T10:51:47.714Z,137824
2022-09-30T10:52:51.164Z,133280
2022-09-30T10:53:54.259Z,131168
2022-09-30T10:54:57.717Z,127136
2022-09-30T10:56:01.192Z,126944
2022-09-30T10:57:04.938Z,127712
2022-09-30T10:58:08.645Z,123264
2022-09-30T10:59:11.232Z,118752
2022-09-30T11:00:14.247Z,121248
2022-09-30T11:01:17.223Z,125568
2022-09-30T11:03:24.518Z,34240
2022-09-30T11:04:27.745Z,134080
2022-09-30T11:05:31.433Z,108576
2022-09-30T11:06:34.600Z,138688
2022-09-30T11:07:37.669Z,133664
2022-09-30T11:08:40.740Z,30816
2022-09-30T11:09:43.761Z,128192
2022-09-30T11:10:46.943Z,32992
2022-09-30T11:11:49.817Z,122592
2022-09-30T11:12:53.618Z,127872
2022-09-30T11:13:57.285Z,125344
2022-09-30T11:15:00.085Z,123840
2022-09-30T11:16:02.981Z,33312
2022-09-30T11:17:06.423Z,17168
2022-09-30T11:18:09.542Z,18436
2022-09-30T11:19:12.721Z,18364
2022-09-30T11:20:15.593Z,20800
2022-09-30T11:21:18.404Z,31328
2022-09-30T11:22:21.621Z,24320
2022-09-30T11:23:24.498Z,25888
2022-09-30T11:24:27.763Z,30752
2022-09-30T11:25:30.635Z,26624
2022-09-30T11:26:33.712Z,18316
2022-09-30T11:27:36.493Z,14836
2022-09-30T11:28:40.279Z,15432
2022-09-30T11:29:43.748Z,16972
2022-09-30T11:30:47.056Z,16952
2022-09-30T11:31:50.619Z,14876
2022-09-30T11:32:54.200Z,13224
2022-09-30T11:33:57.914Z,14356
2022-09-30T11:35:01.308Z,15668
2022-09-30T11:36:04.278Z,13792
2022-09-30T11:37:07.342Z,10876
2022-09-30T11:38:11.428Z,9644
2022-09-30T11:39:14.424Z,8724
2022-09-30T11:40:16.925Z,8144
2022-09-30T11:41:19.998Z,8900
2022-09-30T11:42:23.717Z,8720
2022-09-30T11:43:27.140Z,8288
2022-09-30T11:44:30.452Z,7888
2022-09-30T11:45:34.238Z,7644
2022-09-30T11:46:38.129Z,7768
2022-09-30T11:47:41.742Z,9096
2022-09-30T11:48:44.810Z,10804
2022-09-30T11:49:48.632Z,9112
2022-09-30T11:50:51.658Z,8052
2022-09-30T11:51:55.084Z,9032
2022-09-30T11:52:57.686Z,10352
2022-09-30T11:54:01.035Z,12712
2022-09-30T11:55:04.415Z,24160
2022-09-30T11:56:07.390Z,108032
2022-09-30T11:57:10.497Z,107648
2022-09-30T11:58:36.524Z,48160
2022-09-30T11:59:45.601Z,77664
2022-09-30T12:00:48.777Z,94624
2022-09-30T12:01:52.557Z,98112
2022-09-30T12:02:56.084Z,96000
2022-09-30T12:03:59.579Z,98592
2022-09-30T12:05:02.977Z,98464
2022-09-30T12:06:05.994Z,30688
2022-09-30T12:07:09.345Z,96640
2022-09-30T12:08:12.408Z,101824
2022-09-30T12:09:14.963Z,103040
2022-09-30T12:10:18.672Z,102752
2022-09-30T12:11:22.048Z,100256
2022-09-30T12:12:25.503Z,100384
2022-09-30T12:13:28.377Z,100416
2022-09-30T12:14:31.369Z,98624
2022-09-30T12:15:35.506Z,96960
2022-09-30T12:16:38.750Z,97184
2022-09-30T12:17:41.828Z,37600
2022-09-30T12:18:45.180Z,55008
2022-09-30T12:19:48.635Z,103360
2022-09-30T12:20:51.359Z,80256
2022-09-30T12:21:54.530Z,102176
2022-09-30T12:22:57.702Z,99904
2022-09-30T12:24:01.045Z,53216
2022-09-30T12:25:04.225Z,71808
2022-09-30T12:26:07.478Z,58720
2022-09-30T12:27:10.270Z,21024
2022-09-30T12:28:14.097Z,21792
2022-09-30T12:29:18.142Z,103008
2022-09-30T12:30:21.809Z,18240
2022-09-30T12:31:25.688Z,18836
2022-09-30T12:32:29.712Z,18640
2022-09-30T12:33:32.234Z,13712
2022-09-30T12:34:35.689Z,14660
2022-09-30T12:35:38.398Z,46400
2022-09-30T12:36:41.576Z,17924
2022-09-30T12:37:45.306Z,15476
2022-09-30T12:38:48.564Z,15604
2022-09-30T12:39:51.734Z,15396
2022-09-30T12:40:55.466Z,27424
2022-09-30T12:41:57.803Z,20672
2022-09-30T12:43:00.622Z,18776
2022-09-30T12:44:04.070Z,16556
2022-09-30T12:45:07.175Z,16148
2022-09-30T12:46:10.458Z,15904
2022-09-30T12:47:14.852Z,27136
2022-09-30T12:48:18.255Z,14300
2022-09-30T12:49:22.076Z,15140
2022-09-30T12:50:25.537Z,16032
2022-09-30T12:51:28.414Z,21664
2022-09-30T12:52:31.324Z,16052
2022-09-30T12:53:35.089Z,15040
2022-09-30T12:54:38.142Z,15056
2022-09-30T12:55:40.853Z,14604
2022-09-30T12:56:43.748Z,14996
2022-09-30T12:57:47.109Z,13496
2022-09-30T12:58:50.073Z,11916
2022-09-30T12:59:53.503Z,11788
2022-09-30T13:00:56.868Z,12340
2022-09-30T13:02:00.693Z,12520
2022-09-30T13:03:05.302Z,15316
2022-09-30T13:04:09.315Z,13948
2022-09-30T13:05:12.389Z,15336
2022-09-30T13:06:15.106Z,18228
2022-09-30T13:07:18.414Z,19464
2022-09-30T13:08:25.004Z,17448
2022-09-30T13:09:29.027Z,17608
2022-09-30T13:10:32.126Z,15932
2022-09-30T13:11:35.119Z,14480
2022-09-30T13:12:38.232Z,15740
2022-09-30T13:13:41.025Z,17316
2022-09-30T13:14:43.638Z,23680
2022-09-30T13:15:47.371Z,48928
2022-09-30T13:16:50.387Z,29152
2022-09-30T13:17:53.977Z,18704
2022-09-30T13:18:58.052Z,19072
2022-09-30T13:20:01.594Z,35360
2022-09-30T13:21:04.098Z,39360
2022-09-30T13:22:06.944Z,17464
2022-09-30T13:23:10.096Z,14516
2022-09-30T13:24:13.429Z,12140
2022-09-30T13:25:16.607Z,10972
2022-09-30T13:26:19.405Z,19200
2022-09-30T13:27:22.277Z,12808
2022-09-30T13:28:25.606Z,12384
2022-09-30T13:29:29.406Z,11668
2022-09-30T13:30:34.486Z,10092
2022-09-30T13:31:37.795Z,9260
2022-09-30T13:32:41.622Z,9792
2022-09-30T13:33:44.426Z,10548
2022-09-30T13:34:47.681Z,10708
2022-09-30T13:35:51.530Z,10768
2022-09-30T13:36:54.518Z,10404
2022-09-30T13:37:57.938Z,10636
2022-09-30T13:39:01.679Z,11340
2022-09-30T13:40:04.837Z,13468
2022-09-30T13:41:08.572Z,13964
2022-09-30T13:42:11.409Z,15652
2022-09-30T13:43:14.291Z,16788
2022-09-30T13:44:17.722Z,15636
2022-09-30T13:45:20.829Z,12852
2022-09-30T13:46:23.948Z,13000
2022-09-30T13:47:27.420Z,12580
2022-09-30T13:48:30.485Z,9696
2022-09-30T13:49:34.034Z,8124
2022-09-30T13:50:37.522Z,9084
2022-09-30T13:51:40.980Z,10160
2022-09-30T13:52:44.333Z,12284
2022-09-30T13:53:47.401Z,14100
2022-09-30T13:54:50.110Z,15540
2022-09-30T13:55:53.111Z,15772
2022-09-30T13:56:56.313Z,14148
2022-09-30T13:57:59.702Z,11236
2022-09-30T13:59:02.779Z,9200
2022-09-30T14:00:05.575Z,7552
2022-09-30T14:01:08.471Z,7156
2022-09-30T14:02:11.635Z,6888
2022-09-30T14:03:15.056Z,6656
2022-09-30T14:04:18.443Z,6348
2022-09-30T14:05:21.258Z,5728
2022-09-30T14:06:24.712Z,5564
2022-09-30T14:07:27.924Z,6300
2022-09-30T14:08:30.815Z,7028
2022-09-30T14:09:34.275Z,6616
2022-09-30T14:10:37.508Z,5908
2022-09-30T14:11:40.601Z,5468
2022-09-30T14:12:43.798Z,5252
2022-09-30T14:13:46.315Z,5428
2022-09-30T14:14:49.183Z,5532
2022-09-30T14:15:52.027Z,5012
2022-09-30T14:16:55.084Z,4456
2022-09-30T14:17:58.174Z,4196
2022-09-30T14:19:01.404Z,4064
2022-09-30T14:20:04.297Z,3868
2022-09-30T14:21:07.459Z,3672
2022-09-30T14:22:10.773Z,3528
2022-09-30T14:23:14.268Z,3812
2022-09-30T14:24:17.053Z,4060
2022-09-30T14:25:20.177Z,4356
2022-09-30T14:26:23.358Z,4956